createdAt,value
2022-09-14T00:01:45.321Z,1.73
2022-09-14T00:04:19.789Z,1.00
2022-09-14T00:06:49.468Z,1.07
2022-09-14T00:09:21.410Z,0.77
2022-09-14T00:11:51.037Z,0.57
2022-09-14T00:14:20.861Z,4.47
2022-09-14T00:16:51.002Z,1.13
2022-09-14T00:19:24.210Z,1.80
2022-09-14T00:21:55.112Z,0.60
2022-09-14T00:24:25.250Z,1.73
2022-09-14T00:26:53.918Z,1.57
2022-09-14T00:29:24.001Z,2.23
2022-09-14T00:31:53.081Z,2.20
2022-09-14T00:34:23.141Z,0.60
2022-09-14T00:36:53.140Z,0.83
2022-09-14T00:39:24.850Z,2.07
2022-09-14T00:41:54.761Z,0.63
2022-09-14T00:45:08.476Z,0.60
2022-09-14T00:47:37.449Z,0.70
2022-09-14T00:50:08.604Z,0.90
2022-09-14T00:52:41.211Z,1.53
2022-09-14T00:55:13.599Z,0.83
2022-09-14T00:57:46.470Z,0.80
2022-09-14T01:00:19.518Z,1.50
2022-09-14T01:02:48.102Z,0.83
2022-09-14T01:05:19.661Z,3.57
2022-09-14T01:08:09.970Z,0.23
2022-09-14T01:10:56.661Z,0.87
2022-09-14T01:13:36.208Z,1.53
2022-09-14T01:16:14.664Z,2.23
2022-09-14T01:18:48.595Z,1.00
2022-09-14T01:21:25.765Z,1.97
2022-09-14T01:24:03.208Z,1.40
2022-09-14T01:27:22.525Z,1.37
2022-09-14T01:30:01.937Z,1.43
2022-09-14T01:32:37.065Z,1.00
2022-09-14T01:35:16.090Z,1.83
2022-09-14T01:37:49.254Z,0.70
2022-09-14T01:40:22.365Z,1.70
2022-09-14T01:43:05.219Z,1.50
2022-09-14T01:45:38.448Z,0.93
2022-09-14T01:48:10.555Z,2.83
2022-09-14T01:50:42.399Z,2.07
2022-09-14T01:53:17.434Z,2.17
2022-09-14T01:55:52.160Z,1.13
2022-09-14T01:58:29.600Z,1.50
2022-09-14T02:01:02.820Z,1.10
2022-09-14T02:03:37.578Z,0.80
2022-09-14T02:06:14.765Z,2.10
2022-09-14T02:08:43.566Z,1.00
2022-09-14T02:11:12.150Z,0.90
2022-09-14T02:13:42.005Z,1.63
2022-09-14T02:16:10.906Z,1.20
2022-09-14T02:18:39.911Z,1.43
2022-09-14T02:21:15.305Z,1.97
2022-09-14T02:23:44.171Z,2.97
2022-09-14T02:26:13.389Z,1.87
2022-09-14T02:28:43.402Z,1.27
2022-09-14T02:31:27.029Z,1.77
2022-09-14T02:34:17.261Z,1.03
2022-09-14T02:36:51.779Z,1.43
2022-09-14T02:39:39.146Z,1.83
2022-09-14T02:42:24.984Z,1.33
2022-09-14T02:45:05.447Z,1.30
2022-09-14T02:47:46.909Z,1.00
2022-09-14T02:50:25.627Z,1.63
2022-09-14T02:53:02.863Z,0.87
2022-09-14T02:55:43.189Z,1.17
2022-09-14T02:58:14.670Z,1.60
2022-09-14T03:00:47.200Z,0.80
2022-09-14T03:03:18.502Z,1.60
2022-09-14T03:05:47.782Z,1.13
2022-09-14T03:08:16.774Z,0.57
2022-09-14T03:10:45.922Z,1.73
2022-09-14T03:13:14.829Z,0.60
2022-09-14T03:15:45.034Z,0.63
2022-09-14T03:18:14.683Z,1.80
2022-09-14T03:20:43.877Z,1.17
2022-09-14T03:23:14.024Z,1.33
2022-09-14T03:25:44.748Z,1.70
2022-09-14T03:28:14.077Z,1.60
2022-09-14T03:30:44.158Z,0.60
2022-09-14T03:33:13.460Z,1.47
2022-09-14T03:35:42.051Z,0.50
2022-09-14T03:38:10.530Z,2.67
2022-09-14T03:40:40.593Z,2.57
2022-09-14T03:43:09.018Z,0.63
2022-09-14T03:45:38.394Z,0.90
2022-09-14T03:48:08.572Z,0.87
2022-09-14T03:50:37.303Z,0.53
2022-09-14T03:53:05.825Z,1.00
2022-09-14T03:55:34.328Z,1.57
2022-09-14T03:58:03.130Z,2.57
2022-09-14T04:00:32.253Z,1.20
2022-09-14T04:03:01.998Z,1.50
2022-09-14T04:05:32.074Z,0.57
2022-09-14T04:08:00.648Z,1.07
2022-09-14T04:10:29.120Z,1.00
2022-09-14T04:12:58.363Z,1.00
2022-09-14T04:15:26.980Z,0.60
2022-09-14T04:17:55.528Z,0.50
2022-09-14T04:20:24.914Z,1.70
2022-09-14T04:22:54.768Z,1.23
2022-09-14T04:25:23.603Z,0.73
2022-09-14T04:28:16.669Z,1.87
2022-09-14T04:30:41.073Z,1.33
2022-09-14T04:33:10.178Z,0.87
2022-09-14T04:35:39.032Z,0.87
2022-09-14T04:38:09.115Z,1.13
2022-09-14T04:40:42.221Z,2.27
2022-09-14T04:43:10.973Z,2.80
2022-09-14T04:45:40.903Z,3.50
2022-09-14T04:48:09.869Z,1.57
2022-09-14T04:50:38.433Z,1.47
2022-09-14T04:53:08.307Z,1.90
2022-09-14T04:55:37.066Z,0.97
2022-09-14T04:58:06.363Z,2.30
2022-09-14T05:00:37.429Z,0.70
2022-09-14T05:03:06.790Z,1.63
2022-09-14T05:05:40.044Z,1.63
2022-09-14T05:08:13.383Z,1.03
2022-09-14T05:10:42.380Z,1.37
2022-09-14T05:13:11.016Z,0.93
2022-09-14T05:15:39.688Z,1.90
2022-09-14T05:18:08.703Z,1.70
2022-09-14T05:20:39.056Z,1.13
2022-09-14T05:23:09.517Z,0.67
2022-09-14T05:25:40.261Z,3.60
2022-09-14T05:28:09.819Z,1.10
2022-09-14T05:30:41.912Z,1.83
2022-09-14T05:33:10.606Z,0.77
2022-09-14T05:35:39.527Z,0.80
2022-09-14T05:38:08.247Z,1.70
2022-09-14T05:40:36.895Z,0.83
2022-09-14T05:43:06.809Z,1.37
2022-09-14T05:45:35.812Z,2.00
2022-09-14T05:48:05.780Z,0.63
2022-09-14T05:50:35.040Z,1.47
2022-09-14T05:53:03.937Z,2.93
2022-09-14T05:55:33.053Z,3.60
2022-09-14T05:58:01.635Z,3.13
2022-09-14T06:00:31.934Z,1.73
2022-09-14T06:03:00.433Z,2.73
2022-09-14T06:05:31.731Z,1.33
2022-09-14T06:33:37.034Z,1.03
2022-09-14T06:59:43.221Z,2.20
2022-09-14T07:03:46.571Z,2.50
2022-09-14T07:16:37.525Z,1.17
2022-09-14T07:19:08.829Z,1.03
2022-09-14T07:21:37.694Z,2.43
2022-09-14T07:24:06.524Z,2.23
2022-09-14T07:26:39.571Z,1.83
2022-09-14T07:29:12.385Z,1.37
2022-09-14T07:39:15.617Z,2.77
2022-09-14T07:46:41.081Z,2.63
2022-09-14T07:49:21.678Z,0.60
2022-09-14T07:52:38.701Z,1.23
2022-09-14T07:56:02.243Z,0.97
2022-09-14T07:59:36.579Z,2.10
2022-09-14T08:02:31.234Z,1.10
2022-09-14T08:05:37.470Z,1.67
2022-09-14T08:08:38.191Z,2.37
2022-09-14T08:11:44.398Z,1.50
2022-09-14T08:14:49.312Z,1.70
2022-09-14T08:18:39.396Z,3.43
2022-09-14T08:21:32.082Z,1.03
2022-09-14T08:25:05.147Z,1.20
2022-09-14T08:28:00.899Z,2.40
2022-09-14T08:31:19.080Z,2.47
2022-09-14T08:34:05.098Z,1.63
2022-09-14T08:40:56.451Z,1.30
2022-09-14T08:45:15.338Z,1.27
2022-09-14T08:48:21.447Z,0.93
2022-09-14T08:52:23.046Z,1.63
2022-09-14T08:55:54.864Z,0.80
2022-09-14T09:00:07.213Z,2.03
2022-09-14T09:03:05.388Z,1.07
2022-09-14T09:05:41.716Z,1.93
2022-09-14T09:09:16.513Z,0.77
2022-09-14T09:11:53.017Z,0.70
2022-09-14T09:14:28.037Z,1.17
2022-09-14T09:17:06.605Z,0.87
2022-09-14T09:19:57.277Z,1.53
2022-09-14T09:22:30.665Z,0.87
2022-09-14T09:25:03.200Z,0.57
2022-09-14T09:27:31.735Z,0.60
2022-09-14T09:30:00.371Z,0.83
2022-09-14T09:32:31.124Z,1.40
2022-09-14T09:35:27.323Z,1.50
2022-09-14T09:38:06.461Z,0.77
2022-09-14T09:40:44.991Z,0.93
2022-09-14T09:43:33.289Z,0.70
2022-09-14T09:46:08.666Z,1.13
2022-09-14T09:48:43.369Z,1.00
2022-09-14T09:51:14.872Z,0.93
2022-09-14T09:53:50.679Z,2.70
2022-09-14T09:56:22.812Z,0.87
2022-09-14T09:58:52.177Z,1.43
2022-09-14T10:01:27.819Z,1.60
2022-09-14T10:04:17.734Z,0.93
2022-09-14T10:06:49.046Z,0.60
2022-09-14T10:09:20.701Z,0.60
2022-09-14T10:11:59.672Z,1.53
2022-09-14T10:14:32.620Z,1.03
2022-09-14T10:17:16.999Z,1.07
2022-09-14T10:19:49.620Z,0.93
2022-09-14T10:22:28.861Z,0.70
2022-09-14T10:25:03.590Z,0.70
2022-09-14T10:27:44.589Z,0.47
2022-09-14T10:30:20.111Z,0.60
2022-09-14T10:33:02.231Z,1.63
2022-09-14T10:35:47.488Z,2.10
2022-09-14T10:38:35.787Z,1.67
2022-09-14T10:41:22.729Z,0.57
2022-09-14T10:44:22.883Z,0.83
2022-09-14T10:47:13.717Z,1.63
2022-09-14T10:49:59.825Z,1.47
2022-09-14T10:52:49.037Z,0.93
2022-09-14T10:55:34.427Z,0.70
2022-09-14T10:58:25.773Z,1.30
2022-09-14T11:01:10.118Z,1.67
2022-09-14T11:03:57.331Z,1.03
2022-09-14T11:06:45.485Z,1.00
2022-09-14T11:09:23.601Z,0.63
2022-09-14T11:12:04.689Z,0.50
2022-09-14T11:14:49.369Z,0.43
2022-09-14T11:17:39.290Z,1.90
2022-09-14T11:20:20.355Z,0.50
2022-09-14T11:22:59.478Z,0.53
2022-09-14T11:25:42.949Z,0.80
2022-09-14T11:28:24.862Z,0.67
2022-09-14T11:31:23.003Z,0.80
2022-09-14T11:34:02.599Z,0.63
2022-09-14T11:37:19.534Z,0.50
2022-09-14T11:40:38.641Z,1.73
2022-09-14T11:43:15.354Z,1.47
2022-09-14T11:45:49.327Z,1.03
2022-09-14T11:48:42.375Z,1.60
2022-09-14T11:51:20.427Z,0.60
2022-09-14T11:53:50.810Z,0.60
2022-09-14T11:56:27.290Z,0.50
2022-09-14T11:58:57.956Z,0.40
2022-09-14T12:01:37.080Z,0.80
2022-09-14T12:04:13.155Z,1.23
2022-09-14T12:06:57.287Z,0.33
2022-09-14T12:09:54.862Z,0.83
2022-09-14T12:12:38.207Z,0.63
2022-09-14T12:15:34.398Z,0.43
2022-09-14T12:18:30.065Z,0.87
2022-09-14T12:21:07.531Z,0.23
2022-09-14T12:23:52.430Z,1.10
2022-09-14T12:26:39.905Z,1.10
2022-09-14T12:29:31.077Z,0.37
2022-09-14T12:32:29.909Z,0.40
2022-09-14T12:35:47.173Z,0.27
2022-09-14T12:38:43.166Z,1.13
2022-09-14T12:42:07.111Z,0.63
2022-09-14T12:44:40.637Z,0.63
2022-09-14T12:47:54.932Z,0.47
2022-09-14T12:50:24.015Z,0.50
2022-09-14T12:53:20.087Z,0.60
2022-09-14T12:56:03.689Z,0.40
2022-09-14T12:58:56.057Z,1.00
2022-09-14T13:01:37.170Z,0.83
2022-09-14T13:04:14.393Z,0.40
2022-09-14T13:06:45.758Z,0.83
2022-09-14T13:09:22.559Z,0.67
2022-09-14T13:12:00.574Z,0.53
2022-09-14T13:14:34.344Z,1.37
2022-09-14T13:17:04.328Z,1.10
2022-09-14T13:19:35.362Z,0.50
2022-09-14T13:22:04.399Z,2.20
2022-09-14T13:24:39.464Z,0.97
2022-09-14T13:27:22.561Z,0.60
2022-09-14T13:30:01.663Z,1.13
2022-09-14T13:32:30.169Z,2.33
2022-09-14T13:34:59.286Z,0.87
2022-09-14T13:37:28.142Z,0.67
2022-09-14T13:39:58.946Z,0.80
2022-09-14T13:42:28.060Z,0.93
2022-09-14T13:44:58.200Z,0.80
2022-09-14T13:47:27.259Z,1.07
2022-09-14T13:49:56.810Z,0.63
2022-09-14T13:52:57.480Z,0.73
2022-09-14T13:55:29.003Z,0.97
2022-09-14T13:58:16.568Z,0.80
2022-09-14T14:01:00.457Z,1.00
2022-09-14T14:03:36.600Z,0.80
2022-09-14T14:06:22.324Z,1.43
2022-09-14T14:09:02.712Z,0.80
2022-09-14T14:11:39.930Z,1.00
2022-09-14T14:14:30.824Z,1.10
2022-09-14T14:17:42.057Z,1.30
2022-09-14T14:20:36.090Z,1.00
2022-09-14T14:23:22.792Z,0.70
2022-09-14T14:25:55.673Z,0.80
2022-09-14T14:28:32.317Z,1.70
2022-09-14T14:31:14.803Z,0.70
2022-09-14T14:33:54.652Z,1.60
2022-09-14T14:36:23.843Z,0.93
2022-09-14T14:38:52.903Z,0.47
2022-09-14T14:41:23.512Z,0.70
2022-09-14T14:43:54.897Z,0.77
2022-09-14T14:46:26.950Z,0.50
2022-09-14T14:48:58.662Z,1.23
2022-09-14T14:51:30.275Z,1.07
2022-09-14T14:54:01.574Z,0.80
2022-09-14T14:56:35.031Z,1.23
2022-09-14T14:59:03.885Z,1.20
2022-09-14T15:01:32.458Z,1.43
2022-09-14T15:04:02.672Z,0.93
2022-09-14T15:06:31.245Z,1.83
2022-09-14T15:08:59.849Z,1.07
2022-09-14T15:11:28.414Z,1.00
2022-09-14T15:13:56.970Z,0.87
2022-09-14T15:16:25.919Z,0.90
2022-09-14T15:18:54.556Z,0.70
2022-09-14T15:21:25.294Z,1.07
2022-09-14T15:23:53.828Z,0.97
2022-09-14T15:26:25.029Z,1.50
2022-09-14T15:28:54.335Z,0.90
2022-09-14T15:31:23.178Z,1.00
2022-09-14T15:33:51.822Z,0.80
2022-09-14T15:36:42.413Z,0.97
2022-09-14T15:39:14.419Z,1.70
2022-09-14T15:41:43.704Z,1.27
2022-09-14T15:44:12.711Z,0.93
2022-09-14T15:46:41.714Z,1.00
2022-09-14T15:49:13.886Z,1.40
2022-09-14T15:51:47.087Z,2.03
2022-09-14T15:54:16.074Z,0.80
2022-09-14T15:56:44.850Z,1.13
2022-09-14T15:59:13.421Z,0.83
2022-09-14T16:01:41.979Z,1.47
2022-09-14T16:04:11.894Z,0.80
2022-09-14T16:06:41.386Z,0.77
2022-09-14T16:09:14.197Z,0.57
2022-09-14T16:11:43.228Z,1.57
2022-09-14T16:14:13.003Z,0.93
2022-09-14T16:16:41.740Z,0.83
2022-09-14T16:19:13.380Z,1.00
2022-09-14T16:21:43.131Z,1.27
2022-09-14T16:24:18.023Z,1.33
2022-09-14T16:26:47.383Z,1.00
2022-09-14T16:29:18.098Z,1.40
2022-09-14T16:31:48.977Z,1.10
2022-09-14T16:34:20.492Z,1.30
2022-09-14T16:36:49.584Z,1.87
2022-09-14T16:39:22.912Z,1.30
2022-09-14T16:41:54.042Z,1.17
2022-09-14T16:44:25.617Z,1.90
2022-09-14T16:46:57.572Z,2.67
2022-09-14T16:49:28.146Z,1.37
2022-09-14T16:52:00.526Z,1.20
2022-09-14T16:54:31.904Z,1.20
2022-09-14T16:57:01.328Z,2.10
2022-09-14T16:59:29.980Z,1.20
2022-09-14T17:01:58.662Z,1.17
2022-09-14T17:04:27.391Z,0.80
2022-09-14T17:06:56.918Z,0.97
2022-09-14T17:09:27.845Z,1.37
2022-09-14T17:11:58.887Z,1.27
2022-09-14T17:14:30.239Z,1.40
2022-09-14T17:16:59.707Z,1.53
2022-09-14T17:19:29.095Z,2.23
2022-09-14T17:21:58.530Z,1.20
2022-09-14T17:24:28.133Z,3.37
2022-09-14T17:26:58.186Z,1.63
2022-09-14T17:29:26.764Z,1.50
2022-09-14T17:45:33.116Z,1.90
2022-09-14T17:48:01.733Z,2.43
2022-09-14T17:50:30.326Z,2.30
2022-09-14T17:52:59.260Z,2.10
2022-09-14T17:55:28.765Z,2.70
2022-09-14T17:57:57.300Z,3.20
2022-09-14T18:00:25.943Z,3.23
2022-09-14T18:02:56.326Z,2.97
2022-09-14T18:05:25.773Z,3.17
2022-09-14T18:07:55.511Z,4.00
2022-09-14T18:10:23.992Z,3.40
2022-09-14T18:12:53.137Z,3.57
2022-09-14T18:15:21.722Z,3.73
2022-09-14T18:17:52.302Z,4.20
2022-09-14T18:20:22.218Z,3.43
2022-09-14T18:22:50.793Z,3.63
2022-09-14T18:25:19.410Z,3.57
2022-09-14T18:27:47.910Z,3.50
2022-09-14T18:30:16.567Z,3.40
2022-09-14T18:32:46.298Z,3.20
2022-09-14T18:35:16.678Z,3.73
2022-09-14T18:37:46.616Z,3.00
2022-09-14T18:40:19.552Z,3.27
2022-09-14T18:42:49.075Z,2.90
2022-09-14T18:45:17.922Z,3.33
2022-09-14T18:47:46.493Z,3.00
2022-09-14T18:50:15.214Z,3.20
2022-09-14T18:52:43.678Z,2.87
2022-09-14T18:55:13.599Z,3.00
2022-09-14T18:57:42.172Z,2.83
2022-09-14T19:00:17.739Z,3.13
2022-09-14T19:02:52.777Z,3.10
2022-09-14T19:05:21.619Z,2.87
2022-09-14T19:07:50.542Z,2.90
2022-09-14T19:10:20.416Z,2.97
2022-09-14T19:12:48.992Z,2.97
2022-09-14T19:15:17.970Z,3.83
2022-09-14T19:17:46.471Z,2.90
2022-09-14T19:20:15.151Z,2.63
2022-09-14T19:22:43.856Z,2.40
2022-09-14T19:25:12.355Z,2.57
2022-09-14T19:27:42.239Z,2.03
2022-09-14T19:30:12.667Z,3.03
2022-09-14T19:32:41.320Z,2.90
2022-09-14T19:35:10.828Z,2.67
2022-09-14T19:37:39.575Z,2.23
2022-09-14T19:40:10.308Z,2.37
2022-09-14T19:42:39.486Z,2.70
2022-09-14T19:45:12.305Z,2.67
2022-09-14T19:47:41.112Z,2.40
2022-09-14T19:50:10.944Z,2.27
2022-09-14T19:52:39.476Z,2.60
2022-09-14T19:55:08.955Z,1.90
2022-09-14T19:57:38.135Z,2.00
2022-09-14T20:00:16.304Z,2.10
2022-09-14T20:02:47.089Z,2.33
2022-09-14T20:05:16.720Z,3.10
2022-09-14T20:07:45.256Z,2.43
2022-09-14T20:10:13.984Z,2.43
2022-09-14T20:12:42.526Z,2.10
2022-09-14T20:15:13.305Z,1.47
2022-09-14T20:17:42.537Z,2.23
2022-09-14T20:20:11.586Z,2.57
2022-09-14T20:22:40.301Z,1.90
2022-09-14T20:25:10.151Z,2.00
2022-09-14T20:27:38.660Z,1.90
2022-09-14T20:30:09.689Z,2.37
2022-09-14T20:32:39.934Z,4.23
2022-09-14T20:35:09.771Z,4.20
2022-09-14T20:37:38.709Z,2.60
2022-09-14T20:40:09.304Z,3.20
2022-09-14T20:42:38.015Z,3.27
2022-09-14T20:45:07.704Z,2.40
2022-09-14T20:47:36.445Z,2.30
2022-09-14T20:50:07.660Z,2.30
2022-09-14T20:52:37.050Z,2.57
2022-09-14T20:55:06.708Z,2.30
2022-09-14T20:57:35.213Z,1.93
2022-09-14T21:00:04.455Z,2.77
2022-09-14T21:02:33.004Z,3.13
2022-09-14T21:05:01.731Z,2.40
2022-09-14T21:07:33.425Z,2.70
2022-09-14T21:10:01.960Z,2.77
2022-09-14T21:12:30.396Z,2.80
2022-09-14T21:14:58.852Z,3.00
2022-09-14T21:17:27.568Z,2.97
2022-09-14T21:19:56.169Z,3.03
2022-09-14T21:22:24.744Z,3.47
2022-09-14T21:24:54.714Z,3.40
2022-09-14T21:27:23.249Z,3.30
2022-09-14T21:29:51.983Z,3.90
2022-09-14T21:32:20.464Z,3.53
2022-09-14T21:34:49.250Z,4.67
2022-09-14T21:37:17.778Z,3.90
2022-09-14T21:39:46.495Z,3.83
2022-09-14T21:42:16.482Z,2.97
2022-09-14T21:44:45.036Z,3.80
2022-09-14T21:47:16.267Z,4.10
2022-09-14T21:49:45.030Z,4.33
2022-09-14T21:52:13.537Z,4.13
2022-09-14T21:54:42.385Z,3.60
2022-09-14T21:57:10.859Z,4.13
2022-09-14T21:59:41.769Z,3.70
2022-09-14T22:02:10.752Z,5.50
2022-09-14T22:04:39.236Z,4.90
2022-09-14T22:07:07.991Z,4.07
2022-09-14T22:09:36.507Z,3.50
2022-09-14T22:12:05.311Z,3.67
2022-09-14T22:14:33.873Z,3.47
2022-09-14T22:17:04.014Z,4.00
2022-09-14T22:19:33.423Z,3.70
2022-09-14T22:22:02.369Z,3.40
2022-09-14T22:24:38.322Z,2.90
2022-09-14T22:27:09.068Z,3.43
2022-09-14T22:29:38.645Z,3.60
2022-09-14T22:32:10.801Z,3.00
2022-09-14T22:34:41.612Z,3.33
2022-09-14T22:37:10.314Z,3.30
2022-09-14T22:39:39.095Z,3.77
2022-09-14T22:42:07.910Z,2.80
2022-09-14T22:44:36.391Z,3.20
2022-09-14T22:47:04.992Z,3.87
2022-09-14T22:49:34.951Z,4.43
2022-09-14T22:52:04.215Z,3.87
2022-09-14T22:54:32.715Z,3.67
2022-09-14T22:57:01.201Z,3.27
2022-09-14T22:59:29.828Z,4.80
2022-09-14T23:01:58.403Z,3.33
2022-09-14T23:04:27.353Z,3.50
2022-09-14T23:06:57.375Z,3.20
2022-09-14T23:09:25.883Z,3.63
2022-09-14T23:11:54.555Z,3.70
2022-09-14T23:14:22.987Z,3.13
2022-09-14T23:16:51.436Z,3.67
2022-09-14T23:19:20.371Z,4.43
2022-09-14T23:21:48.865Z,3.40
2022-09-14T23:24:18.738Z,3.90
2022-09-14T23:26:47.149Z,3.53
2022-09-14T23:29:18.218Z,3.20
2022-09-14T23:31:46.926Z,2.83
2022-09-14T23:34:15.914Z,3.90
2022-09-14T23:36:44.430Z,4.23
2022-09-14T23:39:12.882Z,4.67
2022-09-14T23:41:42.697Z,4.70
2022-09-14T23:44:12.700Z,4.03
2022-09-14T23:46:41.353Z,4.53
2022-09-14T23:49:12.853Z,4.53
2022-09-14T23:51:42.365Z,4.77
2022-09-14T23:54:11.840Z,5.57
2022-09-14T23:56:40.561Z,5.40
2022-09-14T23:59:13.274Z,4.50
